createdAt,value
2022-11-13T00:00:39.850Z,95926.84
2022-11-13T00:03:06.621Z,95917.88
2022-11-13T00:05:33.079Z,95919.84
2022-11-13T00:08:00.454Z,95915.78
2022-11-13T00:10:26.972Z,95899.34
2022-11-13T00:12:53.525Z,95897.34
2022-11-13T00:15:20.663Z,95899.44
2022-11-13T00:17:47.316Z,95897.81
2022-11-13T00:20:13.794Z,95881.38
2022-11-13T00:22:40.340Z,95897.88
2022-11-13T00:25:07.058Z,95897.47
2022-11-13T00:27:33.527Z,95900.69
2022-11-13T00:30:02.602Z,95897.06
2022-11-13T00:32:29.070Z,95899.84
2022-11-13T00:34:55.695Z,95896.19
2022-11-13T00:37:22.209Z,95889.28
2022-11-13T00:39:48.663Z,95893.97
2022-11-13T00:42:15.199Z,95881.03
2022-11-13T00:44:41.727Z,95876.41
2022-11-13T00:47:08.238Z,95873.31
2022-11-13T00:49:34.711Z,95882.41
2022-11-13T00:52:01.159Z,95873.34
2022-11-13T00:54:27.666Z,95871.28
2022-11-13T00:56:54.201Z,95869.50
2022-11-13T00:59:20.980Z,95870.56
2022-11-13T01:01:47.597Z,95867.53
2022-11-13T01:04:14.139Z,95867.56
2022-11-13T01:06:40.578Z,95866.97
2022-11-13T01:09:07.091Z,95863.91
2022-11-13T01:11:33.761Z,95852.75
2022-11-13T01:14:00.273Z,95860.28
2022-11-13T01:16:27.602Z,95852.13
2022-11-13T01:18:55.247Z,95843.38
2022-11-13T01:21:24.833Z,95849.66
2022-11-13T01:23:51.417Z,95852.34
2022-11-13T01:26:23.574Z,95846.84
2022-11-13T01:28:50.415Z,95850.31
2022-11-13T01:31:20.011Z,95848.06
2022-11-13T01:33:47.303Z,95846.81
2022-11-13T01:36:17.729Z,95841.75
2022-11-13T01:38:44.366Z,95841.75
2022-11-13T01:41:21.821Z,95837.28
2022-11-13T01:43:50.727Z,95835.66
2022-11-13T01:46:26.603Z,95834.63
2022-11-13T01:49:12.668Z,95829.50
2022-11-13T01:51:42.745Z,95825.84
2022-11-13T01:54:17.413Z,95818.31
2022-11-13T01:56:44.053Z,95814.47
2022-11-13T01:59:14.855Z,95821.38
2022-11-13T02:01:41.885Z,95816.06
2022-11-13T02:04:08.495Z,95808.53
2022-11-13T02:06:44.190Z,95816.06
2022-11-13T02:09:11.306Z,95814.41
2022-11-13T02:11:38.039Z,95811.50
2022-11-13T02:14:04.900Z,95810.47
2022-11-13T02:16:33.200Z,95805.75
2022-11-13T02:19:00.533Z,95808.97
2022-11-13T02:21:43.301Z,95806.06
2022-11-13T02:24:32.748Z,95805.53
2022-11-13T02:27:05.733Z,95799.00
2022-11-13T02:29:32.366Z,95795.28
2022-11-13T02:31:58.880Z,95788.53
2022-11-13T02:34:25.645Z,95785.91
2022-11-13T02:36:52.524Z,95779.63
2022-11-13T02:39:19.114Z,95780.28
2022-11-13T02:41:45.694Z,95769.59
2022-11-13T02:44:12.235Z,95765.78
2022-11-13T02:46:38.827Z,95758.47
2022-11-13T02:49:05.467Z,95759.91
2022-11-13T02:51:31.956Z,95762.94
2022-11-13T02:53:58.473Z,95769.22
2022-11-13T02:56:25.022Z,95761.47
2022-11-13T02:58:51.521Z,95755.81
2022-11-13T03:01:18.251Z,95760.72
2022-11-13T03:04:00.009Z,95759.91
2022-11-13T03:06:26.509Z,95752.16
2022-11-13T03:08:53.037Z,95747.22
2022-11-13T03:11:19.538Z,95739.53
2022-11-13T03:13:46.023Z,95744.66
2022-11-13T03:16:16.690Z,95740.41
2022-11-13T03:18:43.337Z,95734.13
2022-11-13T03:21:12.286Z,95731.06
2022-11-13T03:23:40.382Z,95726.41
2022-11-13T03:26:08.525Z,95730.25
2022-11-13T03:28:35.210Z,95744.28
2022-11-13T03:31:01.899Z,95745.84
2022-11-13T03:33:28.431Z,95739.34
2022-11-13T03:35:55.003Z,95748.47
2022-11-13T03:38:22.006Z,95728.09
2022-11-13T03:40:48.956Z,95732.94
2022-11-13T03:43:15.600Z,95727.38
2022-11-13T03:45:44.598Z,95718.22
2022-11-13T03:48:11.068Z,95723.88
2022-11-13T03:50:42.793Z,95720.81
2022-11-13T03:53:11.854Z,95721.41
2022-11-13T03:55:38.385Z,95720.97
2022-11-13T03:58:05.217Z,95713.44
2022-11-13T04:00:32.543Z,95713.66
2022-11-13T04:02:59.080Z,95710.09
2022-11-13T04:05:25.713Z,95703.63
2022-11-13T04:07:57.626Z,95699.53
2022-11-13T04:10:24.119Z,95699.50
2022-11-13T04:13:03.412Z,95684.56
2022-11-13T04:15:41.389Z,95682.84
2022-11-13T04:18:08.009Z,95675.63
2022-11-13T04:20:34.524Z,95671.84
2022-11-13T04:23:01.164Z,95663.22
2022-11-13T04:25:27.660Z,95673.97
2022-11-13T04:27:54.741Z,95657.84
2022-11-13T04:30:21.316Z,95657.56
2022-11-13T04:32:47.850Z,95661.53
2022-11-13T04:35:14.352Z,95652.88
2022-11-13T04:37:40.834Z,95661.28
2022-11-13T04:40:08.093Z,95656.97
2022-11-13T04:42:34.898Z,95651.59
2022-11-13T04:45:01.517Z,95650.38
2022-11-13T04:47:28.014Z,95644.34
2022-11-13T04:49:54.533Z,95654.06
2022-11-13T04:52:21.029Z,95648.72
2022-11-13T04:54:47.900Z,95643.63
2022-11-13T04:57:14.520Z,95641.91
2022-11-13T04:59:41.002Z,95632.84
2022-11-13T05:02:07.661Z,95645.50
2022-11-13T05:04:34.167Z,95635.31
2022-11-13T05:07:00.758Z,95642.09
2022-11-13T05:09:27.259Z,95643.72
2022-11-13T05:11:53.820Z,95644.47
2022-11-13T05:14:20.297Z,95645.47
2022-11-13T05:16:46.776Z,95636.22
2022-11-13T05:19:13.288Z,95635.56
2022-11-13T05:21:39.885Z,95633.38
2022-11-13T05:24:07.046Z,95634.53
2022-11-13T05:26:33.682Z,95622.09
2022-11-13T05:29:00.673Z,95617.09
2022-11-13T05:31:27.412Z,95628.22
2022-11-13T05:33:54.046Z,95628.13
2022-11-13T05:36:21.560Z,95626.22
2022-11-13T05:38:48.672Z,95629.44
2022-11-13T05:41:20.599Z,95621.84
2022-11-13T05:43:47.638Z,95619.25
2022-11-13T05:46:26.294Z,95608.25
2022-11-13T05:49:00.608Z,95608.25
2022-11-13T05:51:30.285Z,95609.25
2022-11-13T05:53:57.100Z,95611.19
2022-11-13T05:56:31.750Z,95609.59
2022-11-13T05:58:59.442Z,95603.09
2022-11-13T06:01:29.173Z,95603.25
2022-11-13T06:03:57.160Z,95604.81
2022-11-13T06:06:24.692Z,95596.34
2022-11-13T06:08:52.201Z,95596.97
2022-11-13T06:11:20.485Z,95609.03
2022-11-13T06:13:47.807Z,95600.44
2022-11-13T06:16:16.468Z,95601.53
2022-11-13T06:18:44.249Z,95597.63
2022-11-13T06:21:15.748Z,95600.91
2022-11-13T06:23:43.002Z,95602.75
2022-11-13T06:26:18.923Z,95598.06
2022-11-13T06:28:46.160Z,95591.63
2022-11-13T06:31:18.489Z,95599.78
2022-11-13T06:33:45.141Z,95599.94
2022-11-13T06:36:17.245Z,95595.38
2022-11-13T06:38:43.971Z,95593.28
2022-11-13T06:41:13.157Z,95597.25
2022-11-13T06:43:39.907Z,95590.31
2022-11-13T06:46:10.220Z,95584.38
2022-11-13T06:48:36.616Z,95588.22
2022-11-13T06:51:05.269Z,95579.34
2022-11-13T06:53:32.228Z,95573.09
2022-11-13T06:55:59.259Z,95575.16
2022-11-13T06:58:26.033Z,95575.06
2022-11-13T07:00:53.038Z,95573.19
2022-11-13T07:03:25.216Z,95574.25
2022-11-13T07:05:52.236Z,95576.34
2022-11-13T07:08:18.703Z,95571.44
2022-11-13T07:10:52.967Z,95575.97
2022-11-13T07:13:19.514Z,95572.69
2022-11-13T07:15:46.009Z,95566.38
2022-11-13T07:18:12.566Z,95564.50
2022-11-13T07:20:39.156Z,95565.63
2022-11-13T07:23:05.634Z,95566.81
2022-11-13T07:25:32.270Z,95551.16
2022-11-13T07:27:58.775Z,95560.41
2022-11-13T07:30:25.692Z,95567.63
2022-11-13T07:32:52.354Z,95561.06
2022-11-13T07:35:18.854Z,95556.66
2022-11-13T07:37:45.303Z,95569.09
2022-11-13T07:40:12.052Z,95564.66
2022-11-13T07:42:39.300Z,95564.66
2022-11-13T07:45:06.474Z,95559.84
2022-11-13T07:47:33.072Z,95559.50
2022-11-13T07:50:04.576Z,95552.88
2022-11-13T07:52:33.383Z,95554.53
2022-11-13T07:54:59.906Z,95560.19
2022-11-13T07:57:26.509Z,95553.28
2022-11-13T07:59:53.022Z,95552.59
2022-11-13T08:02:23.618Z,95558.53
2022-11-13T08:04:53.388Z,95562.75
2022-11-13T08:07:20.197Z,95545.84
2022-11-13T08:09:46.746Z,95554.66
2022-11-13T08:12:13.290Z,95557.63
2022-11-13T08:14:39.785Z,95545.63
2022-11-13T08:17:06.241Z,95554.34
2022-11-13T08:19:32.773Z,95541.94
2022-11-13T08:21:59.323Z,95531.78
2022-11-13T08:24:25.793Z,95539.59
2022-11-13T08:26:52.267Z,95543.50
2022-11-13T08:29:19.068Z,95530.94
2022-11-13T08:31:45.594Z,95523.47
2022-11-13T08:34:12.079Z,95527.94
2022-11-13T08:36:38.549Z,95523.22
2022-11-13T08:39:08.950Z,95515.03
2022-11-13T08:41:35.407Z,95509.31
2022-11-13T08:44:05.006Z,95511.66
2022-11-13T08:46:31.608Z,95515.72
2022-11-13T08:48:58.080Z,95512.28
2022-11-13T08:51:24.551Z,95509.94
2022-11-13T08:53:51.088Z,95511.06
2022-11-13T08:56:17.583Z,95515.25
2022-11-13T08:58:44.160Z,95517.81
2022-11-13T09:01:10.684Z,95501.78
2022-11-13T09:03:37.274Z,95507.31
2022-11-13T09:06:07.405Z,95506.81
2022-11-13T09:08:33.954Z,95506.34
2022-11-13T09:11:04.871Z,95509.59
2022-11-13T09:13:32.480Z,95507.16
2022-11-13T09:16:00.514Z,95498.38
2022-11-13T09:18:27.324Z,95500.56
2022-11-13T09:20:54.900Z,95494.88
2022-11-13T09:23:21.943Z,95493.75
2022-11-13T09:25:48.411Z,95492.28
2022-11-13T09:28:14.971Z,95497.97
2022-11-13T09:30:41.566Z,95492.13
2022-11-13T09:33:08.085Z,95484.34
2022-11-13T09:35:34.561Z,95491.88
2022-11-13T09:38:11.175Z,95491.22
2022-11-13T09:40:58.280Z,95489.31
2022-11-13T09:43:33.871Z,95473.94
2022-11-13T09:46:05.375Z,95472.91
2022-11-13T09:48:37.735Z,95488.06
2022-11-13T09:51:13.354Z,95482.97
2022-11-13T09:53:40.456Z,95490.88
2022-11-13T09:56:19.416Z,95498.53
2022-11-13T09:59:01.344Z,95492.66
2022-11-13T10:01:43.566Z,95491.53
2022-11-13T10:04:14.480Z,95480.25
2022-11-13T10:06:57.256Z,95470.81
2022-11-13T10:09:46.050Z,95468.94
2022-11-13T10:12:14.237Z,95453.25
2022-11-13T10:14:45.724Z,95462.34
2022-11-13T10:17:29.020Z,95467.25
2022-11-13T10:20:04.843Z,95473.78
2022-11-13T10:22:41.792Z,95466.25
2022-11-13T10:25:14.116Z,95460.75
2022-11-13T10:27:40.896Z,95451.31
2022-11-13T10:30:15.609Z,95447.13
2022-11-13T10:32:42.479Z,95448.03
2022-11-13T10:35:42.425Z,95449.06
2022-11-13T10:38:20.347Z,95449.19
2022-11-13T10:40:46.949Z,95437.13
2022-11-13T10:43:20.196Z,95441.06
2022-11-13T10:46:00.839Z,95436.81
2022-11-13T10:48:30.432Z,95432.19
2022-11-13T10:51:27.097Z,95434.88
2022-11-13T10:53:54.451Z,95418.63
2022-11-13T10:56:28.242Z,95415.97
2022-11-13T10:59:11.333Z,95425.06
2022-11-13T11:01:38.730Z,95413.13
2022-11-13T11:04:12.766Z,95408.44
2022-11-13T11:09:29.202Z,95403.56
2022-11-13T11:12:10.469Z,95404.63
2022-11-13T11:14:45.714Z,95416.84
2022-11-13T11:17:13.936Z,95429.69
2022-11-13T11:19:40.983Z,95428.84
2022-11-13T11:22:19.773Z,95431.03
2022-11-13T11:25:00.687Z,95435.94
2022-11-13T11:27:37.710Z,95418.50
2022-11-13T11:30:19.033Z,95419.75
2022-11-13T11:33:00.946Z,95399.97
2022-11-13T11:35:39.250Z,95390.28
2022-11-13T11:38:11.919Z,95387.66
2022-11-13T11:40:43.706Z,95391.56
2022-11-13T11:43:41.603Z,95376.53
2022-11-13T11:46:23.446Z,95376.47
2022-11-13T11:48:50.408Z,95374.34
2022-11-13T11:51:31.094Z,95385.56
2022-11-13T11:54:11.475Z,95383.25
2022-11-13T11:56:57.409Z,95385.75
2022-11-13T11:59:51.721Z,95388.69
2022-11-13T12:02:47.241Z,95383.75
2022-11-13T12:05:41.093Z,95376.75
2022-11-13T12:08:26.302Z,95363.44
2022-11-13T12:11:21.423Z,95353.06
2022-11-13T12:14:04.667Z,95347.22
2022-11-13T12:16:49.017Z,95351.94
2022-11-13T12:19:22.084Z,95349.78
2022-11-13T12:21:58.266Z,95359.13
2022-11-13T12:25:09.240Z,95351.16
2022-11-13T12:27:41.706Z,95361.28
2022-11-13T12:30:17.990Z,95366.22
2022-11-13T12:33:02.679Z,95361.88
2022-11-13T12:35:29.460Z,95359.69
2022-11-13T12:38:31.596Z,95353.00
2022-11-13T12:41:28.110Z,95340.28
2022-11-13T12:44:12.835Z,95329.19
2022-11-13T12:46:41.535Z,95321.25
2022-11-13T12:49:23.645Z,95308.56
2022-11-13T12:51:59.780Z,95301.84
2022-11-13T12:54:31.851Z,95310.06
2022-11-13T12:57:14.075Z,95306.81
2022-11-13T12:59:42.941Z,95317.56
2022-11-13T13:02:38.856Z,95321.22
2022-11-13T13:05:14.952Z,95319.38
2022-11-13T13:08:04.765Z,95323.63
2022-11-13T13:10:34.716Z,95313.91
2022-11-13T13:13:23.680Z,95302.25
2022-11-13T13:15:59.414Z,95296.69
2022-11-13T13:18:37.012Z,95298.69
2022-11-13T13:21:16.205Z,95305.41
2022-11-13T13:23:45.879Z,95307.16
2022-11-13T13:26:21.372Z,95293.56
2022-11-13T13:28:53.393Z,95290.44
2022-11-13T13:31:47.864Z,95294.00
2022-11-13T13:34:48.685Z,95300.28
2022-11-13T13:37:29.327Z,95282.47
2022-11-13T13:40:14.162Z,95281.25
2022-11-13T13:42:55.907Z,95288.09
2022-11-13T13:45:34.528Z,95277.34
2022-11-13T13:48:01.544Z,95275.91
2022-11-13T13:50:30.919Z,95268.06
2022-11-13T13:52:58.545Z,95257.25
2022-11-13T13:55:33.713Z,95266.53
2022-11-13T13:58:05.538Z,95266.41
2022-11-13T14:00:32.531Z,95253.94
2022-11-13T14:02:59.179Z,95245.44
2022-11-13T14:05:27.603Z,95256.16
2022-11-13T14:07:54.399Z,95240.97
2022-11-13T14:10:27.756Z,95248.44
2022-11-13T14:12:55.734Z,95247.66
2022-11-13T14:15:28.099Z,95256.66
2022-11-13T14:18:14.946Z,95252.53
2022-11-13T14:20:48.328Z,95260.50
2022-11-13T14:23:36.601Z,95268.06
2022-11-13T14:26:04.900Z,95265.25
2022-11-13T14:28:34.300Z,95261.91
2022-11-13T14:31:03.462Z,95241.25
2022-11-13T14:33:37.400Z,95235.50
2022-11-13T14:36:04.249Z,95241.88
2022-11-13T14:38:34.862Z,95236.75
2022-11-13T14:41:02.574Z,95231.94
2022-11-13T14:43:31.432Z,95228.41
2022-11-13T14:46:00.381Z,95224.84
2022-11-13T14:48:32.000Z,95222.03
2022-11-13T14:51:06.379Z,95236.44
2022-11-13T14:53:38.555Z,95240.47
2022-11-13T14:56:07.392Z,95241.88
2022-11-13T14:58:36.168Z,95227.91
2022-11-13T15:01:17.727Z,95236.69
2022-11-13T15:03:45.593Z,95227.31
2022-11-13T15:06:14.213Z,95231.81
2022-11-13T15:08:40.789Z,95230.91
2022-11-13T15:11:10.352Z,95225.34
2022-11-13T15:13:36.834Z,95230.72
2022-11-13T15:16:03.717Z,95230.75
2022-11-13T15:18:30.201Z,95233.13
2022-11-13T15:20:56.687Z,95228.78
2022-11-13T15:23:25.536Z,95227.47
2022-11-13T15:25:52.159Z,95241.59
2022-11-13T15:28:18.621Z,95245.63
2022-11-13T15:30:45.176Z,95239.88
2022-11-13T15:33:18.161Z,95248.53
2022-11-13T15:35:44.721Z,95241.97
2022-11-13T15:38:11.332Z,95254.69
2022-11-13T15:40:38.384Z,95249.69
2022-11-13T15:43:06.359Z,95254.69
2022-11-13T15:45:33.047Z,95257.31
2022-11-13T15:47:59.537Z,95252.19
2022-11-13T15:50:26.062Z,95257.81
2022-11-13T15:52:53.099Z,95246.66
2022-11-13T15:55:30.923Z,95263.75
2022-11-13T15:57:58.007Z,95276.03
2022-11-13T16:00:26.123Z,95278.44
2022-11-13T16:02:53.805Z,95274.50
2022-11-13T16:05:25.990Z,95270.13
2022-11-13T16:07:55.931Z,95280.56
2022-11-13T16:10:23.064Z,95274.75
2022-11-13T16:12:49.599Z,95277.28
2022-11-13T16:15:16.855Z,95279.00
2022-11-13T16:17:49.447Z,95278.44
2022-11-13T16:20:17.345Z,95279.03
2022-11-13T16:22:44.501Z,95284.19
2022-11-13T16:25:21.410Z,95286.38
2022-11-13T16:27:48.232Z,95296.88
2022-11-13T16:30:17.160Z,95296.59
2022-11-13T16:32:43.721Z,95302.75
2022-11-13T16:35:17.941Z,95309.66
2022-11-13T16:37:44.758Z,95308.25
2022-11-13T16:40:25.849Z,95304.06
2022-11-13T16:42:52.904Z,95309.56
2022-11-13T16:45:20.556Z,95305.53
2022-11-13T16:47:47.323Z,95297.84
2022-11-13T16:50:19.694Z,95295.00
2022-11-13T16:52:46.224Z,95292.38
2022-11-13T16:55:12.884Z,95299.31
2022-11-13T16:57:40.232Z,95300.34
2022-11-13T17:00:08.425Z,95288.75
2022-11-13T17:02:34.907Z,95284.28
2022-11-13T17:05:01.499Z,95278.19
2022-11-13T17:07:28.147Z,95287.56
2022-11-13T17:10:16.680Z,95283.50
2022-11-13T17:12:41.856Z,95273.59
2022-11-13T17:15:09.491Z,95285.78
2022-11-13T17:17:36.022Z,95269.97
2022-11-13T17:20:02.662Z,95272.16
2022-11-13T17:22:29.130Z,95262.44
2022-11-13T17:24:55.644Z,95256.53
2022-11-13T17:27:24.228Z,95259.94
2022-11-13T17:29:50.729Z,95257.94
2022-11-13T17:32:17.211Z,95243.94
2022-11-13T17:34:43.663Z,95245.53
2022-11-13T17:37:10.135Z,95241.28
2022-11-13T17:39:36.640Z,95241.66
2022-11-13T17:42:03.620Z,95226.88
2022-11-13T17:44:30.107Z,95226.44
2022-11-13T17:46:56.897Z,95224.25
2022-11-13T17:49:23.398Z,95228.25
2022-11-13T17:51:49.846Z,95214.72
2022-11-13T17:54:16.318Z,95226.66
2022-11-13T17:56:43.165Z,95219.34
2022-11-13T17:59:09.646Z,95222.59
2022-11-13T18:01:36.362Z,95222.59
2022-11-13T18:04:02.907Z,95217.19
2022-11-13T18:06:29.356Z,95234.66
2022-11-13T18:08:56.169Z,95241.34
2022-11-13T18:11:25.202Z,95250.66
2022-11-13T18:13:52.107Z,95246.44
2022-11-13T18:16:24.264Z,95241.53
2022-11-13T18:18:52.561Z,95229.19
2022-11-13T18:21:24.437Z,95232.84
2022-11-13T18:23:59.364Z,95232.03
2022-11-13T18:26:26.932Z,95239.53
2022-11-13T18:28:53.469Z,95238.50
2022-11-13T18:31:20.536Z,95248.66
2022-11-13T18:33:47.314Z,95240.34
2022-11-13T18:36:14.060Z,95223.31
2022-11-13T18:38:40.669Z,95238.09
2022-11-13T18:41:09.689Z,95220.47
2022-11-13T18:43:36.440Z,95225.56
2022-11-13T18:46:05.332Z,95226.34
2022-11-13T18:48:36.755Z,95226.56
2022-11-13T18:51:05.824Z,95219.91
2022-11-13T18:53:32.847Z,95208.97
2022-11-13T18:56:00.892Z,95203.50
2022-11-13T18:58:28.158Z,95195.84
2022-11-13T19:00:55.634Z,95188.31
2022-11-13T19:03:23.238Z,95194.81
2022-11-13T19:05:50.367Z,95185.88
2022-11-13T19:08:17.075Z,95195.56
2022-11-13T19:10:43.554Z,95193.13
2022-11-13T19:13:10.075Z,95189.66
2022-11-13T19:15:37.488Z,95183.38
2022-11-13T19:18:05.795Z,95192.88
2022-11-13T19:20:32.684Z,95198.75
2022-11-13T19:22:59.723Z,95198.50
2022-11-13T19:25:26.196Z,95193.88
2022-11-13T19:27:53.101Z,95199.16
2022-11-13T19:30:19.997Z,95200.56
2022-11-13T19:32:46.537Z,95210.47
2022-11-13T19:35:13.083Z,95205.28
2022-11-13T19:37:39.737Z,95214.56
2022-11-13T19:40:06.941Z,95202.78
2022-11-13T19:42:34.634Z,95211.94
2022-11-13T19:45:03.789Z,95215.53
2022-11-13T19:47:30.322Z,95212.91
2022-11-13T19:49:56.912Z,95200.69
2022-11-13T19:52:23.637Z,95194.59
2022-11-13T19:54:50.332Z,95204.31
2022-11-13T19:57:16.784Z,95182.22
2022-11-13T19:59:43.243Z,95192.22
2022-11-13T20:02:10.395Z,95191.78
2022-11-13T20:04:36.901Z,95200.69
2022-11-13T20:07:03.622Z,95221.81
2022-11-13T20:09:30.250Z,95220.19
2022-11-13T20:11:56.712Z,95209.28
2022-11-13T20:14:23.323Z,95227.53
2022-11-13T20:16:50.204Z,95235.84
2022-11-13T20:19:16.690Z,95227.16
2022-11-13T20:21:45.780Z,95227.78
2022-11-13T20:24:12.300Z,95239.94
2022-11-13T20:26:38.749Z,95232.91
2022-11-13T20:29:05.429Z,95247.66
2022-11-13T20:31:32.011Z,95253.13
2022-11-13T20:33:58.827Z,95249.28
2022-11-13T20:36:25.625Z,95243.41
2022-11-13T20:38:54.747Z,95238.91
2022-11-13T20:41:21.423Z,95243.31
2022-11-13T20:43:48.755Z,95251.81
2022-11-13T20:46:16.669Z,95261.13
2022-11-13T20:48:43.172Z,95257.91
2022-11-13T20:51:21.050Z,95247.00
2022-11-13T20:53:48.189Z,95242.16
2022-11-13T20:56:15.263Z,95250.28
2022-11-13T20:58:42.021Z,95237.75
2022-11-13T21:01:13.482Z,95235.75
2022-11-13T21:03:42.792Z,95228.66
2022-11-13T21:06:11.137Z,95227.25
2022-11-13T21:08:40.011Z,95230.09
2022-11-13T21:11:07.891Z,95229.28
2022-11-13T21:13:34.838Z,95218.53
2022-11-13T21:16:06.480Z,95236.34
2022-11-13T21:18:33.587Z,95237.59
2022-11-13T21:21:14.965Z,95241.22
2022-11-13T21:23:41.597Z,95231.09
2022-11-13T21:26:08.895Z,95239.41
2022-11-13T21:28:36.196Z,95240.41
2022-11-13T21:31:10.213Z,95235.50
2022-11-13T21:33:37.701Z,95231.22
2022-11-13T21:36:05.939Z,95231.19
2022-11-13T21:38:33.037Z,95236.63
2022-11-13T21:41:01.441Z,95234.03
2022-11-13T21:43:27.950Z,95235.03
2022-11-13T21:45:54.433Z,95228.53
2022-11-13T21:48:20.969Z,95224.91
2022-11-13T21:50:47.710Z,95215.34
2022-11-13T21:53:14.248Z,95219.81
2022-11-13T21:55:48.917Z,95207.59
2022-11-13T21:58:15.421Z,95210.28
2022-11-13T22:00:42.017Z,95196.69
2022-11-13T22:03:08.535Z,95193.88
2022-11-13T22:05:35.242Z,95185.38
2022-11-13T22:08:01.857Z,95185.28
2022-11-13T22:10:28.420Z,95181.81
2022-11-13T22:12:54.919Z,95177.53
2022-11-13T22:15:21.415Z,95168.59
2022-11-13T22:17:47.919Z,95167.97
2022-11-13T22:20:15.045Z,95164.72
2022-11-13T22:22:41.584Z,95162.09
2022-11-13T22:25:08.167Z,95154.47
2022-11-13T22:27:34.632Z,95160.81
2022-11-13T22:30:01.172Z,95154.53
2022-11-13T22:32:27.673Z,95150.19
2022-11-13T22:34:54.143Z,95161.81
2022-11-13T22:37:20.614Z,95162.63
2022-11-13T22:39:47.153Z,95165.50
2022-11-13T22:42:13.736Z,95167.19
2022-11-13T22:44:55.307Z,95161.06
2022-11-13T22:47:23.373Z,95163.09
2022-11-13T22:49:49.910Z,95153.38
2022-11-13T22:52:16.378Z,95167.72
2022-11-13T22:54:45.199Z,95147.13
2022-11-13T22:57:11.782Z,95165.97
2022-11-13T22:59:38.260Z,95175.34
2022-11-13T23:02:04.927Z,95180.78
2022-11-13T23:04:31.545Z,95168.19
2022-11-13T23:06:58.122Z,95160.88
2022-11-13T23:09:24.858Z,95164.16
2022-11-13T23:11:51.332Z,95162.09
2022-11-13T23:14:17.853Z,95168.53
2022-11-13T23:16:44.325Z,95169.75
2022-11-13T23:19:10.825Z,95173.16
2022-11-13T23:21:37.367Z,95166.34
2022-11-13T23:24:04.034Z,95166.34
2022-11-13T23:26:30.860Z,95166.09
2022-11-13T23:28:57.381Z,95160.59
2022-11-13T23:31:24.104Z,95160.97
2022-11-13T23:33:50.605Z,95163.13
2022-11-13T23:36:17.444Z,95165.72
2022-11-13T23:38:43.957Z,95157.19
2022-11-13T23:41:10.969Z,95155.25
2022-11-13T23:44:07.182Z,95156.41
2022-11-13T23:46:24.182Z,95139.16
2022-11-13T23:48:50.737Z,95145.28
2022-11-13T23:51:17.220Z,95138.22
2022-11-13T23:53:47.260Z,95127.81
2022-11-13T23:56:13.958Z,95127.78
2022-11-13T23:58:40.413Z,95113.78
